Time;durP1;ratioP1;P1;durP2;ratioP2;P2;SDS_P1;SDS_P2;PMS_P1;PMS_P2;Temp;Humidity;BMP_temperature;BMP_pressure;BME280_temperature;BME280_humidity;BME280_pressure;Samples;Min_cycle;Max_cycle;Signal;HPM_P1;HPM_P2
2023/09/25 00:02:00;;;;;;;4.93;2.00;;;;;;;;;;5074404;28;20634;-71
2023/09/25 00:04:27;;;;;;;3.53;1.90;;;;;;;;;;5056411;28;20644;-72
2023/09/25 00:06:52;;;;;;;3.97;1.98;;;;;;;;;;5082264;28;20199;-71
2023/09/25 00:09:18;;;;;;;2.80;2.00;;;;;;;;;;5088829;28;20180;-71
2023/09/25 00:11:44;;;;;;;5.32;2.03;;;;;;;;;;5095907;28;20192;-71
2023/09/25 00:14:09;;;;;;;4.68;2.45;;;;;;;;;;5073019;28;20200;-72
2023/09/25 00:16:34;;;;;;;4.15;2.40;;;;;;;;;;5082132;28;20179;-71
2023/09/25 00:19:00;;;;;;;3.25;2.35;;;;;;;;;;5101320;28;20289;-71
2023/09/25 00:21:25;;;;;;;3.42;2.10;;;;;;;;;;5098368;28;20224;-71
2023/09/25 00:23:51;;;;;;;6.68;2.25;;;;;;;;;;5087478;28;20250;-71
2023/09/25 00:26:16;;;;;;;5.30;2.20;;;;;;;;;;5080046;28;20203;-71
2023/09/25 00:28:42;;;;;;;2.83;1.90;;;;;;;;;;5091128;28;20176;-71
2023/09/25 00:31:09;;;;;;;5.40;2.35;;;;;;;;;;5092025;28;20215;-70
2023/09/25 00:33:34;;;;;;;4.53;2.42;;;;;;;;;;5086615;28;20199;-71
2023/09/25 00:36:00;;;;;;;4.72;2.50;;;;;;;;;;5083992;28;20547;-70
2023/09/25 00:38:25;;;;;;;4.60;2.25;;;;;;;;;;5072293;28;20214;-71
2023/09/25 00:40:51;;;;;;;3.17;2.22;;;;;;;;;;5083464;28;20617;-71
2023/09/25 00:43:16;;;;;;;4.18;2.38;;;;;;;;;;5098090;28;20184;-70
2023/09/25 00:45:44;;;;;;;6.63;2.42;;;;;;;;;;5090811;28;20231;-70
2023/09/25 00:48:22;;;;;;;3.83;2.40;;;;;;;;;;5091096;28;20190;-70
2023/09/25 00:50:48;;;;;;;6.47;2.40;;;;;;;;;;5091426;28;20621;-70
2023/09/25 00:53:15;;;;;;;7.05;2.63;;;;;;;;;;5090740;28;20192;-71
2023/09/25 00:55:40;;;;;;;3.08;2.50;;;;;;;;;;5084891;28;20188;-71
2023/09/25 00:58:07;;;;;;;6.90;2.40;;;;;;;;;;5088131;28;20260;-71
2023/09/25 01:00:35;;;;;;;2.70;2.28;;;;;;;;;;5080998;28;20190;-72
2023/09/25 01:03:01;;;;;;;4.43;2.97;;;;;;;;;;5095033;28;20235;-71
2023/09/25 01:05:26;;;;;;;5.43;2.42;;;;;;;;;;5073178;28;20620;-70
2023/09/25 01:07:52;;;;;;;3.97;2.45;;;;;;;;;;5065358;28;20204;-72
2023/09/25 01:10:19;;;;;;;4.22;2.58;;;;;;;;;;5090189;28;20233;-71
2023/09/25 01:12:47;;;;;;;4.15;2.30;;;;;;;;;;5090606;28;20224;-71
2023/09/25 01:15:13;;;;;;;6.15;2.40;;;;;;;;;;5091597;28;20192;-71
2023/09/25 01:17:39;;;;;;;4.13;2.55;;;;;;;;;;5106836;28;20232;-71
2023/09/25 01:20:12;;;;;;;5.30;2.47;;;;;;;;;;5089772;28;20180;-71
2023/09/25 01:22:39;;;;;;;4.35;2.38;;;;;;;;;;5072208;28;20192;-71
2023/09/25 01:25:06;;;;;;;4.90;2.40;;;;;;;;;;5090015;28;20191;-71
2023/09/25 01:27:31;;;;;;;4.63;2.95;;;;;;;;;;5064891;28;20192;-71
2023/09/25 01:29:57;;;;;;;7.07;2.88;;;;;;;;;;5090888;28;20663;-71
2023/09/25 01:32:22;;;;;;;3.28;2.50;;;;;;;;;;5053820;28;20199;-71
2023/09/25 01:34:48;;;;;;;5.72;2.50;;;;;;;;;;5081489;28;20329;-71
2023/09/25 01:37:13;;;;;;;4.35;2.42;;;;;;;;;;5079929;28;20191;-71
2023/09/25 01:39:39;;;;;;;4.40;2.40;;;;;;;;;;5078058;28;20191;-71
2023/09/25 01:42:04;;;;;;;3.60;2.10;;;;;;;;;;5072155;28;20526;-71
2023/09/25 01:44:30;;;;;;;3.78;2.55;;;;;;;;;;5091698;28;20195;-71
2023/09/25 01:46:56;;;;;;;4.45;2.30;;;;;;;;;;5091334;28;20188;-71
2023/09/25 01:49:22;;;;;;;5.30;2.47;;;;;;;;;;5084577;28;20207;-71
2023/09/25 01:51:49;;;;;;;4.90;3.03;;;;;;;;;;5067352;28;20714;-70
2023/09/25 01:54:14;;;;;;;4.03;2.45;;;;;;;;;;5097554;28;20258;-70
2023/09/25 01:56:40;;;;;;;4.47;2.72;;;;;;;;;;5082706;28;20215;-70
2023/09/25 01:59:05;;;;;;;4.63;2.83;;;;;;;;;;5094212;28;20297;-71
2023/09/25 02:01:30;;;;;;;5.03;2.83;;;;;;;;;;5088988;28;20290;-70
2023/09/25 02:03:56;;;;;;;5.57;2.97;;;;;;;;;;5071712;28;20547;-71
2023/09/25 02:06:21;;;;;;;9.13;2.90;;;;;;;;;;5087622;28;20200;-71
2023/09/25 02:08:47;;;;;;;4.75;2.70;;;;;;;;;;5093641;28;20290;-71
2023/09/25 02:11:12;;;;;;;4.45;2.72;;;;;;;;;;5099986;28;20599;-70
2023/09/25 02:13:37;;;;;;;4.65;2.83;;;;;;;;;;5089714;28;20195;-71
2023/09/25 02:16:03;;;;;;;5.88;2.72;;;;;;;;;;5089251;28;20199;-71
2023/09/25 02:18:29;;;;;;;7.45;3.10;;;;;;;;;;5103415;28;20207;-70
2023/09/25 02:20:55;;;;;;;6.13;2.75;;;;;;;;;;5096018;28;20248;-71
2023/09/25 02:23:20;;;;;;;4.78;2.92;;;;;;;;;;5090358;28;20237;-71
2023/09/25 02:25:46;;;;;;;4.40;3.08;;;;;;;;;;5104618;28;20194;-72
2023/09/25 02:28:11;;;;;;;3.90;2.78;;;;;;;;;;5099034;28;20271;-71
2023/09/25 02:30:36;;;;;;;4.28;2.85;;;;;;;;;;5089135;28;20207;-72
2023/09/25 02:33:02;;;;;;;5.88;2.85;;;;;;;;;;5084115;28;20232;-71
2023/09/25 02:35:28;;;;;;;5.50;3.03;;;;;;;;;;5079062;28;20310;-72
2023/09/25 02:37:53;;;;;;;6.28;3.10;;;;;;;;;;5092541;28;20243;-71
2023/09/25 02:40:19;;;;;;;8.20;2.80;;;;;;;;;;5101538;28;20202;-71
2023/09/25 02:42:47;;;;;;;4.88;3.00;;;;;;;;;;5107266;28;20711;-72
2023/09/25 02:45:13;;;;;;;4.75;2.92;;;;;;;;;;5094485;28;20191;-71
2023/09/25 02:47:38;;;;;;;6.43;2.80;;;;;;;;;;5082626;28;20194;-71
2023/09/25 02:50:05;;;;;;;5.10;2.63;;;;;;;;;;5092496;28;20522;-72
2023/09/25 02:52:31;;;;;;;4.88;2.72;;;;;;;;;;5099128;28;20594;-69
2023/09/25 02:54:56;;;;;;;3.15;2.42;;;;;;;;;;5102655;28;20198;-70
2023/09/25 02:57:21;;;;;;;2.67;2.42;;;;;;;;;;5088785;28;20296;-72
2023/09/25 02:59:47;;;;;;;7.53;2.85;;;;;;;;;;5088825;28;20204;-72
2023/09/25 03:02:12;;;;;;;4.07;2.60;;;;;;;;;;5090182;28;20698;-72
2023/09/25 03:04:38;;;;;;;3.90;2.65;;;;;;;;;;5070902;28;20202;-71
2023/09/25 03:07:03;;;;;;;6.25;3.03;;;;;;;;;;5077574;28;20236;-70
2023/09/25 03:09:29;;;;;;;4.32;2.92;;;;;;;;;;5093919;28;20672;-70
2023/09/25 03:11:54;;;;;;;4.47;2.47;;;;;;;;;;5088994;28;20203;-71
2023/09/25 03:14:20;;;;;;;7.15;2.72;;;;;;;;;;5088657;28;20184;-71
2023/09/25 03:16:46;;;;;;;2.90;2.60;;;;;;;;;;5088713;28;20249;-70
2023/09/25 03:19:12;;;;;;;4.60;2.92;;;;;;;;;;5083927;28;20208;-71
2023/09/25 03:21:40;;;;;;;5.28;3.03;;;;;;;;;;5097900;28;20195;-71
2023/09/25 03:24:05;;;;;;;5.28;3.20;;;;;;;;;;5095417;28;20175;-71
2023/09/25 03:26:31;;;;;;;5.75;3.33;;;;;;;;;;5073726;28;20245;-71
2023/09/25 03:28:56;;;;;;;4.78;2.80;;;;;;;;;;5091851;28;20180;-71
2023/09/25 03:31:22;;;;;;;5.25;3.15;;;;;;;;;;5070746;28;20203;-71
2023/09/25 03:33:47;;;;;;;5.07;3.28;;;;;;;;;;5077572;28;20673;-71
2023/09/25 03:36:13;;;;;;;6.60;3.30;;;;;;;;;;5088719;28;20196;-72
2023/09/25 03:38:38;;;;;;;3.85;2.78;;;;;;;;;;5107807;28;20646;-72
2023/09/25 03:41:04;;;;;;;4.72;3.30;;;;;;;;;;5105980;28;20199;-71
2023/09/25 03:43:30;;;;;;;6.88;3.10;;;;;;;;;;5098399;28;20183;-71
2023/09/25 03:45:56;;;;;;;6.68;3.03;;;;;;;;;;5093897;28;20678;-71
2023/09/25 03:48:21;;;;;;;4.93;2.97;;;;;;;;;;5074066;28;20188;-72
2023/09/25 03:50:46;;;;;;;5.13;2.88;;;;;;;;;;5092472;28;20184;-69
2023/09/25 03:53:12;;;;;;;4.72;2.50;;;;;;;;;;5092915;28;20355;-70
2023/09/25 03:55:38;;;;;;;8.50;3.30;;;;;;;;;;5104495;28;20195;-71
2023/09/25 03:58:04;;;;;;;6.80;3.35;;;;;;;;;;5094889;28;20227;-71
2023/09/25 04:00:29;;;;;;;7.57;3.15;;;;;;;;;;5083122;28;20195;-70
2023/09/25 04:02:55;;;;;;;5.68;2.78;;;;;;;;;;5096428;28;20224;-70
2023/09/25 04:05:20;;;;;;;4.07;2.88;;;;;;;;;;5084957;28;20238;-70
2023/09/25 04:07:45;;;;;;;4.72;2.78;;;;;;;;;;5075608;28;20536;-70
2023/09/25 04:10:11;;;;;;;4.88;2.78;;;;;;;;;;5076462;28;20185;-70
2023/09/25 04:12:38;;;;;;;3.55;2.40;;;;;;;;;;5073981;28;20188;-70
2023/09/25 04:15:08;;;;;;;3.60;2.60;;;;;;;;;;5102566;28;20275;-70
2023/09/25 04:17:33;;;;;;;3.63;2.38;;;;;;;;;;5080441;28;20682;-70
2023/09/25 04:19:59;;;;;;;4.38;2.72;;;;;;;;;;5085280;28;20195;-71
2023/09/25 04:22:25;;;;;;;6.85;3.30;;;;;;;;;;5084859;28;20556;-71
2023/09/25 04:24:52;;;;;;;4.72;2.92;;;;;;;;;;5073492;28;20200;-71
2023/09/25 04:27:18;;;;;;;7.78;3.08;;;;;;;;;;5080152;28;20624;-70
2023/09/25 04:29:43;;;;;;;3.60;2.67;;;;;;;;;;5080307;28;20203;-71
2023/09/25 04:32:09;;;;;;;7.20;3.05;;;;;;;;;;5080307;28;20263;-71
2023/09/25 04:34:35;;;;;;;3.88;2.60;;;;;;;;;;5071444;28;20267;-70
2023/09/25 04:37:02;;;;;;;4.07;2.65;;;;;;;;;;5080843;28;20214;-71
2023/09/25 04:39:28;;;;;;;3.33;2.80;;;;;;;;;;5081602;28;20207;-70
2023/09/25 04:41:53;;;;;;;3.63;2.72;;;;;;;;;;5083665;28;20743;-69
2023/09/25 04:44:19;;;;;;;10.63;3.55;;;;;;;;;;5090840;28;20188;-69
2023/09/25 04:46:45;;;;;;;4.93;2.72;;;;;;;;;;5101765;28;20558;-71
2023/09/25 04:49:12;;;;;;;6.47;2.67;;;;;;;;;;5090225;28;20694;-71
2023/09/25 04:51:38;;;;;;;5.60;3.28;;;;;;;;;;5071458;28;20223;-71
2023/09/25 04:54:05;;;;;;;3.17;2.35;;;;;;;;;;5071657;28;20256;-71
2023/09/25 04:56:31;;;;;;;3.45;2.42;;;;;;;;;;5087937;28;20188;-71
2023/09/25 04:58:57;;;;;;;3.63;2.42;;;;;;;;;;5091004;28;20208;-71
2023/09/25 05:01:23;;;;;;;4.50;2.15;;;;;;;;;;5089104;28;20765;-71
2023/09/25 05:03:49;;;;;;;3.58;2.63;;;;;;;;;;5082881;28;20557;-69
2023/09/25 05:06:15;;;;;;;3.40;2.60;;;;;;;;;;5080103;28;20193;-69
2023/09/25 05:08:40;;;;;;;7.18;3.40;;;;;;;;;;5084730;28;20245;-71
2023/09/25 05:11:06;;;;;;;5.50;2.63;;;;;;;;;;5084513;28;20271;-72
2023/09/25 05:13:32;;;;;;;5.18;2.50;;;;;;;;;;5065785;28;20774;-70
2023/09/25 05:15:58;;;;;;;3.45;2.60;;;;;;;;;;5079907;28;20202;-70
2023/09/25 05:18:23;;;;;;;4.43;2.00;;;;;;;;;;5089962;28;20221;-71
2023/09/25 05:20:48;;;;;;;4.38;2.60;;;;;;;;;;5073557;28;20577;-71
2023/09/25 05:23:14;;;;;;;5.35;2.10;;;;;;;;;;5086699;28;20188;-70
2023/09/25 05:25:39;;;;;;;5.85;2.53;;;;;;;;;;5086630;28;20275;-70
2023/09/25 05:28:05;;;;;;;3.63;2.33;;;;;;;;;;5079692;28;20180;-69
2023/09/25 05:30:31;;;;;;;3.95;2.47;;;;;;;;;;5082171;28;20199;-70
2023/09/25 05:32:56;;;;;;;3.28;2.15;;;;;;;;;;5070635;28;20665;-70
2023/09/25 05:35:22;;;;;;;4.50;2.05;;;;;;;;;;5069467;28;20246;-70
2023/09/25 05:37:48;;;;;;;5.65;2.35;;;;;;;;;;5088585;28;20204;-70
2023/09/25 05:40:15;;;;;;;3.90;2.20;;;;;;;;;;5085617;28;20188;-69
2023/09/25 05:42:50;;;;;;;2.72;1.85;;;;;;;;;;5088440;28;20231;-70
2023/09/25 05:45:17;;;;;;;2.78;1.98;;;;;;;;;;5083961;28;20591;-69
2023/09/25 05:47:44;;;;;;;5.30;2.72;;;;;;;;;;5089750;28;20176;-70
2023/09/25 05:50:10;;;;;;;4.15;2.30;;;;;;;;;;5092923;28;20225;-70
2023/09/25 05:52:39;;;;;;;4.38;2.00;;;;;;;;;;5084150;28;20616;-70
2023/09/25 05:55:06;;;;;;;3.88;1.90;;;;;;;;;;5051326;28;20180;-69
2023/09/25 05:57:32;;;;;;;2.45;1.83;;;;;;;;;;5073852;28;20219;-71
2023/09/25 05:59:59;;;;;;;4.00;2.08;;;;;;;;;;5059464;28;20189;-72
2023/09/25 06:02:25;;;;;;;3.67;1.80;;;;;;;;;;5077428;28;20406;-72
2023/09/25 06:04:50;;;;;;;2.72;1.77;;;;;;;;;;5078241;28;20219;-71
2023/09/25 06:07:16;;;;;;;3.75;1.90;;;;;;;;;;5075714;28;20322;-70
2023/09/25 06:09:41;;;;;;;3.17;1.60;;;;;;;;;;5086876;28;20207;-71
2023/09/25 06:12:09;;;;;;;10.88;3.03;;;;;;;;;;5080629;28;20192;-71
2023/09/25 06:14:35;;;;;;;6.45;2.50;;;;;;;;;;5080391;28;20193;-71
2023/09/25 06:17:00;;;;;;;5.30;2.13;;;;;;;;;;5089778;28;20634;-71
2023/09/25 06:19:26;;;;;;;2.53;1.98;;;;;;;;;;5072790;28;20200;-71
2023/09/25 06:21:52;;;;;;;4.05;1.85;;;;;;;;;;5076092;28;20852;-70
2023/09/25 06:24:18;;;;;;;8.15;2.17;;;;;;;;;;5067109;28;20655;-69
2023/09/25 06:26:46;;;;;;;2.80;1.83;;;;;;;;;;5067935;28;20185;-70
2023/09/25 06:29:13;;;;;;;3.35;1.77;;;;;;;;;;5093354;28;20191;-71
2023/09/25 06:31:39;;;;;;;3.63;2.00;;;;;;;;;;5096021;28;20199;-70
2023/09/25 06:34:09;;;;;;;3.17;2.20;;;;;;;;;;5086127;28;20204;-70
2023/09/25 06:36:35;;;;;;;3.47;2.00;;;;;;;;;;5088661;28;20192;-69
2023/09/25 06:39:00;;;;;;;4.30;2.05;;;;;;;;;;5084272;28;20215;-71
2023/09/25 06:41:26;;;;;;;3.35;1.92;;;;;;;;;;5088925;28;20207;-69
2023/09/25 06:43:52;;;;;;;4.15;2.15;;;;;;;;;;5087090;28;20212;-69
2023/09/25 06:46:17;;;;;;;3.45;1.90;;;;;;;;;;5070969;28;20271;-71
2023/09/25 06:48:42;;;;;;;3.72;1.70;;;;;;;;;;5079746;28;20583;-68
2023/09/25 06:51:08;;;;;;;3.47;2.10;;;;;;;;;;5083945;28;20188;-69
2023/09/25 06:53:33;;;;;;;4.32;2.20;;;;;;;;;;5066039;28;20212;-70
2023/09/25 06:55:58;;;;;;;5.75;1.85;;;;;;;;;;5084597;28;20183;-69
2023/09/25 06:58:24;;;;;;;3.92;1.80;;;;;;;;;;5103330;28;20276;-70
2023/09/25 07:00:50;;;;;;;2.80;2.10;;;;;;;;;;5088892;28;20218;-71
2023/09/25 07:03:16;;;;;;;3.90;1.90;;;;;;;;;;5086735;28;20239;-70
2023/09/25 07:05:42;;;;;;;6.70;2.08;;;;;;;;;;5077148;28;20579;-70
2023/09/25 07:08:08;;;;;;;4.15;2.10;;;;;;;;;;5082688;28;20180;-69
2023/09/25 07:10:34;;;;;;;3.22;1.98;;;;;;;;;;5073342;28;20195;-70
2023/09/25 07:12:59;;;;;;;6.22;2.10;;;;;;;;;;5097691;28;20184;-70
2023/09/25 07:15:25;;;;;;;6.45;2.25;;;;;;;;;;5094965;28;20558;-69
2023/09/25 07:17:51;;;;;;;4.07;2.20;;;;;;;;;;5074312;28;20268;-68
2023/09/25 07:20:16;;;;;;;5.38;2.05;;;;;;;;;;5083080;28;20215;-66
2023/09/25 07:22:42;;;;;;;4.00;1.88;;;;;;;;;;5104396;28;20195;-70
2023/09/25 07:25:08;;;;;;;4.53;1.88;;;;;;;;;;5080929;28;20200;-69
2023/09/25 07:27:34;;;;;;;5.07;1.90;;;;;;;;;;5090648;28;20657;-69
2023/09/25 07:30:01;;;;;;;7.00;2.20;;;;;;;;;;5085658;28;20488;-70
2023/09/25 07:32:28;;;;;;;3.90;2.13;;;;;;;;;;5079471;28;20188;-69
2023/09/25 07:34:53;;;;;;;4.55;1.98;;;;;;;;;;5078013;28;20740;-69
2023/09/25 07:37:19;;;;;;;2.70;2.00;;;;;;;;;;5080886;28;20214;-69
2023/09/25 07:39:44;;;;;;;6.13;1.95;;;;;;;;;;5066410;28;20338;-70
2023/09/25 07:42:10;;;;;;;4.88;1.88;;;;;;;;;;5073032;28;20523;-68
2023/09/25 07:44:36;;;;;;;5.70;2.28;;;;;;;;;;5095299;28;20227;-69
2023/09/25 07:47:06;;;;;;;3.72;1.88;;;;;;;;;;5116182;28;20194;-70
2023/09/25 07:49:40;;;;;;;3.33;1.65;;;;;;;;;;5115335;28;20212;-70
2023/09/25 07:52:15;;;;;;;5.07;2.08;;;;;;;;;;5083663;28;20254;-69
2023/09/25 07:54:50;;;;;;;4.60;2.00;;;;;;;;;;5086459;28;20206;-69
2023/09/25 07:57:19;;;;;;;2.38;1.40;;;;;;;;;;5081439;28;20196;-69
2023/09/25 07:59:44;;;;;;;4.35;2.08;;;;;;;;;;5087385;28;20275;-68
2023/09/25 08:02:12;;;;;;;4.00;1.67;;;;;;;;;;5085737;28;20933;-70
2023/09/25 08:04:37;;;;;;;3.70;1.50;;;;;;;;;;5095494;28;20267;-70
2023/09/25 08:07:03;;;;;;;2.28;1.60;;;;;;;;;;5084796;28;20283;-69
2023/09/25 08:09:29;;;;;;;4.50;1.80;;;;;;;;;;5086028;28;20594;-70
2023/09/25 08:11:54;;;;;;;3.58;1.77;;;;;;;;;;5097131;28;20211;-71
2023/09/25 08:14:20;;;;;;;4.43;1.90;;;;;;;;;;5059084;28;20180;-68
2023/09/25 08:16:46;;;;;;;5.78;1.83;;;;;;;;;;5091474;28;20185;-69
2023/09/25 08:19:12;;;;;;;3.83;1.63;;;;;;;;;;5093261;28;20273;-69
2023/09/25 08:21:37;;;;;;;4.97;1.80;;;;;;;;;;5082816;28;20552;-68
2023/09/25 08:24:02;;;;;;;3.85;1.85;;;;;;;;;;5097706;28;20260;-69
2023/09/25 08:26:29;;;;;;;3.50;1.73;;;;;;;;;;5082502;28;20192;-71
2023/09/25 08:28:57;;;;;;;6.75;1.98;;;;;;;;;;5085616;28;20257;-71
2023/09/25 08:31:23;;;;;;;4.50;2.28;;;;;;;;;;5071183;28;20248;-69
2023/09/25 08:33:48;;;;;;;5.90;2.13;;;;;;;;;;5074160;28;20287;-69
2023/09/25 08:36:14;;;;;;;4.15;1.90;;;;;;;;;;5079710;28;20188;-69
2023/09/25 08:38:39;;;;;;;5.07;1.60;;;;;;;;;;5077313;28;20720;-70
2023/09/25 08:41:05;;;;;;;2.85;1.70;;;;;;;;;;5081816;28;20192;-68
2023/09/25 08:43:32;;;;;;;9.38;2.08;;;;;;;;;;5084136;28;20191;-69
2023/09/25 08:45:58;;;;;;;4.32;1.70;;;;;;;;;;5093643;28;20198;-70
2023/09/25 08:48:23;;;;;;;3.72;1.73;;;;;;;;;;5056360;28;20192;-69
2023/09/25 08:50:49;;;;;;;2.80;1.88;;;;;;;;;;5071974;28;20275;-68
2023/09/25 08:53:16;;;;;;;3.28;1.70;;;;;;;;;;5085047;28;20180;-70
2023/09/25 08:55:43;;;;;;;5.10;1.90;;;;;;;;;;5064471;28;20272;-68
2023/09/25 08:58:09;;;;;;;3.25;1.83;;;;;;;;;;5085854;28;20248;-69
2023/09/25 09:00:35;;;;;;;4.07;1.92;;;;;;;;;;5101580;28;20212;-69
2023/09/25 09:03:01;;;;;;;7.18;2.10;;;;;;;;;;5064138;28;20232;-69
2023/09/25 09:05:26;;;;;;;7.30;1.98;;;;;;;;;;5065218;28;20193;-69
2023/09/25 09:08:06;;;;;;;4.28;1.80;;;;;;;;;;5035770;28;20194;-70
2023/09/25 09:10:36;;;;;;;4.38;1.92;;;;;;;;;;5037172;28;20190;-68
2023/09/25 09:13:07;;;;;;;2.67;1.90;;;;;;;;;;5064473;28;20181;-70
2023/09/25 09:15:32;;;;;;;5.25;1.70;;;;;;;;;;5070690;28;20192;-70
2023/09/25 09:17:58;;;;;;;3.92;2.03;;;;;;;;;;5057330;28;20206;-69
2023/09/25 09:20:36;;;;;;;3.08;1.65;;;;;;;;;;5062684;28;20286;-71
2023/09/25 09:23:02;;;;;;;4.20;1.83;;;;;;;;;;5054089;28;20185;-68
2023/09/25 09:25:29;;;;;;;4.30;1.75;;;;;;;;;;5048526;28;20184;-70
2023/09/25 09:27:57;;;;;;;3.88;2.13;;;;;;;;;;5050290;28;20183;-69
2023/09/25 09:30:24;;;;;;;5.53;1.95;;;;;;;;;;5047333;28;20668;-71
2023/09/25 09:32:50;;;;;;;3.70;1.77;;;;;;;;;;5039071;28;20193;-71
2023/09/25 09:35:23;;;;;;;4.28;2.03;;;;;;;;;;5045507;28;20186;-69
2023/09/25 09:37:50;;;;;;;6.18;1.98;;;;;;;;;;5036985;28;20316;-70
2023/09/25 09:40:18;;;;;;;2.53;1.83;;;;;;;;;;5049638;28;20637;-72
2023/09/25 09:42:45;;;;;;;5.00;1.77;;;;;;;;;;5044365;28;20513;-70
2023/09/25 09:45:11;;;;;;;5.43;1.73;;;;;;;;;;5054869;28;20470;-72
2023/09/25 09:47:41;;;;;;;4.53;1.45;;;;;;;;;;5035409;28;20247;-70
2023/09/25 09:50:09;;;;;;;4.40;1.90;;;;;;;;;;5056348;28;20250;-69
2023/09/25 09:52:36;;;;;;;4.00;1.70;;;;;;;;;;5064039;28;20264;-68
2023/09/25 09:55:04;;;;;;;5.63;2.00;;;;;;;;;;5040936;28;20187;-67
2023/09/25 09:57:31;;;;;;;3.10;1.50;;;;;;;;;;5041017;28;20201;-68
2023/09/25 09:59:56;;;;;;;6.65;1.70;;;;;;;;;;5064696;28;20185;-68
2023/09/25 10:02:22;;;;;;;2.17;1.50;;;;;;;;;;5077899;28;20246;-69
2023/09/25 10:04:48;;;;;;;5.20;1.80;;;;;;;;;;5081855;28;20192;-69
2023/09/25 10:07:14;;;;;;;3.60;1.77;;;;;;;;;;5069131;28;20260;-70
2023/09/25 10:09:57;;;;;;;4.30;1.88;;;;;;;;;;5070612;28;20702;-71
2023/09/25 10:12:48;;;;;;;5.78;1.67;;;;;;;;;;5094550;28;20180;-71
2023/09/25 10:15:22;;;;;;;3.35;1.33;;;;;;;;;;5070540;28;20658;-69
2023/09/25 10:17:48;;;;;;;3.30;1.65;;;;;;;;;;5087103;28;20228;-70
2023/09/25 10:20:34;;;;;;;4.45;1.65;;;;;;;;;;5090044;28;20286;-69
2023/09/25 10:23:03;;;;;;;5.68;2.13;;;;;;;;;;5072448;28;20204;-70
2023/09/25 10:25:32;;;;;;;3.75;1.70;;;;;;;;;;5083348;28;20206;-70
2023/09/25 10:27:57;;;;;;;6.25;2.03;;;;;;;;;;5069899;28;20177;-72
2023/09/25 10:30:23;;;;;;;4.32;1.90;;;;;;;;;;5090220;28;20199;-71
2023/09/25 10:32:53;;;;;;;6.47;1.95;;;;;;;;;;5077753;28;20690;-68
2023/09/25 10:35:40;;;;;;;3.92;1.70;;;;;;;;;;5083674;28;20249;-70
2023/09/25 10:38:19;;;;;;;3.42;1.90;;;;;;;;;;5071428;28;20230;-72
2023/09/25 10:40:47;;;;;;;3.60;1.58;;;;;;;;;;5086908;28;20623;-72
2023/09/25 10:43:14;;;;;;;3.92;2.20;;;;;;;;;;5085435;28;20210;-69
2023/09/25 10:45:40;;;;;;;6.38;1.92;;;;;;;;;;5074765;28;20186;-70
2023/09/25 10:48:06;;;;;;;5.97;2.13;;;;;;;;;;5092671;28;20179;-69
2023/09/25 10:50:32;;;;;;;3.58;1.88;;;;;;;;;;5069074;28;20195;-69
2023/09/25 10:52:57;;;;;;;2.92;1.70;;;;;;;;;;5075854;28;20532;-70
2023/09/25 10:55:23;;;;;;;3.67;1.85;;;;;;;;;;5085631;28;20184;-70
2023/09/25 10:57:50;;;;;;;3.33;1.70;;;;;;;;;;5068989;28;20204;-70
2023/09/25 11:00:18;;;;;;;5.95;2.20;;;;;;;;;;5082497;28;20184;-70
2023/09/25 11:02:43;;;;;;;4.82;1.95;;;;;;;;;;5063681;28;20248;-70
2023/09/25 11:05:10;;;;;;;3.85;2.00;;;;;;;;;;5066739;28;20177;-70
2023/09/25 11:07:36;;;;;;;4.28;1.80;;;;;;;;;;5067211;28;20547;-69
2023/09/25 11:10:02;;;;;;;2.67;1.70;;;;;;;;;;5080663;28;20180;-69
2023/09/25 11:12:29;;;;;;;2.88;1.63;;;;;;;;;;5067702;28;20189;-71
2023/09/25 11:14:55;;;;;;;4.05;1.83;;;;;;;;;;5068339;28;20671;-70
2023/09/25 11:17:20;;;;;;;4.43;2.20;;;;;;;;;;5070121;28;20172;-70
2023/09/25 11:19:46;;;;;;;2.30;1.40;;;;;;;;;;5068520;28;20219;-70
2023/09/25 11:22:11;;;;;;;3.40;1.67;;;;;;;;;;5063977;28;20192;-70
2023/09/25 11:24:37;;;;;;;4.72;1.85;;;;;;;;;;5053737;28;20192;-70
2023/09/25 11:27:08;;;;;;;3.60;2.00;;;;;;;;;;5068875;28;20258;-71
2023/09/25 11:29:37;;;;;;;5.43;1.80;;;;;;;;;;5054357;28;20192;-71
2023/09/25 11:32:02;;;;;;;4.07;2.05;;;;;;;;;;5048258;28;20565;-71
2023/09/25 11:34:28;;;;;;;4.32;1.95;;;;;;;;;;5054030;28;20525;-70
2023/09/25 11:36:54;;;;;;;4.35;1.80;;;;;;;;;;5049325;28;20193;-71
2023/09/25 11:39:19;;;;;;;3.50;1.73;;;;;;;;;;5070329;28;20236;-68
2023/09/25 11:41:45;;;;;;;2.85;1.70;;;;;;;;;;5061662;28;20246;-68
2023/09/25 11:44:11;;;;;;;3.72;1.90;;;;;;;;;;5070121;28;20185;-69
2023/09/25 11:46:37;;;;;;;4.22;1.83;;;;;;;;;;5067345;28;20189;-71
2023/09/25 11:49:02;;;;;;;6.78;2.13;;;;;;;;;;5075190;28;20192;-70
2023/09/25 11:51:27;;;;;;;7.18;1.80;;;;;;;;;;5073936;28;20192;-71
2023/09/25 11:53:53;;;;;;;2.95;1.80;;;;;;;;;;5058789;28;20287;-69
2023/09/25 11:56:19;;;;;;;6.47;1.85;;;;;;;;;;5075520;28;20189;-71
2023/09/25 11:58:44;;;;;;;3.88;1.73;;;;;;;;;;5079172;28;20291;-70
2023/09/25 12:01:10;;;;;;;4.30;1.38;;;;;;;;;;5072609;28;20213;-72
2023/09/25 12:03:38;;;;;;;4.22;1.80;;;;;;;;;;5090034;28;20232;-71
2023/09/25 12:06:05;;;;;;;3.25;1.60;;;;;;;;;;5085447;28;20292;-70
2023/09/25 12:08:31;;;;;;;5.75;2.30;;;;;;;;;;5073034;28;20258;-69
2023/09/25 12:10:56;;;;;;;3.38;1.90;;;;;;;;;;5091546;28;20208;-70
2023/09/25 12:13:22;;;;;;;6.22;2.03;;;;;;;;;;5090500;28;20204;-70
2023/09/25 12:15:48;;;;;;;5.43;1.63;;;;;;;;;;5100827;28;20191;-69
2023/09/25 12:18:13;;;;;;;5.43;1.80;;;;;;;;;;5097930;28;20310;-69
2023/09/25 12:20:42;;;;;;;6.28;1.80;;;;;;;;;;5092267;28;20188;-69
2023/09/25 12:23:07;;;;;;;4.28;1.95;;;;;;;;;;5090517;28;20279;-70
2023/09/25 12:25:33;;;;;;;4.90;1.90;;;;;;;;;;5084721;28;20638;-70
2023/09/25 12:27:59;;;;;;;5.22;1.60;;;;;;;;;;5072545;28;20222;-71
2023/09/25 12:30:24;;;;;;;2.00;1.40;;;;;;;;;;5059408;28;20707;-70
2023/09/25 12:32:50;;;;;;;4.85;1.45;;;;;;;;;;5070109;28;20200;-70
2023/09/25 12:35:16;;;;;;;3.22;1.52;;;;;;;;;;5077485;28;20640;-69
2023/09/25 12:37:45;;;;;;;3.88;1.55;;;;;;;;;;5070826;28;20235;-69
2023/09/25 12:40:15;;;;;;;3.70;1.65;;;;;;;;;;5082178;28;20204;-70
2023/09/25 12:42:42;;;;;;;3.67;1.40;;;;;;;;;;5073722;28;20188;-70
2023/09/25 12:45:08;;;;;;;3.90;1.35;;;;;;;;;;5089958;28;20695;-69
2023/09/25 12:47:34;;;;;;;4.63;1.60;;;;;;;;;;5089364;28;20242;-70
2023/09/25 12:49:59;;;;;;;5.47;1.50;;;;;;;;;;5065486;28;20188;-71
2023/09/25 12:52:25;;;;;;;2.80;1.30;;;;;;;;;;5074371;28;20189;-71
2023/09/25 12:54:50;;;;;;;4.70;1.55;;;;;;;;;;5078549;28;20188;-70
2023/09/25 12:57:17;;;;;;;4.57;1.65;;;;;;;;;;5068477;28;20192;-71
2023/09/25 12:59:45;;;;;;;3.72;1.52;;;;;;;;;;5078250;28;20217;-69
2023/09/25 13:02:11;;;;;;;3.58;1.60;;;;;;;;;;5084178;28;20250;-71
2023/09/25 13:04:36;;;;;;;2.67;1.50;;;;;;;;;;5086583;28;20673;-70
2023/09/25 13:07:02;;;;;;;4.35;1.65;;;;;;;;;;5073668;28;20180;-71
2023/09/25 13:09:27;;;;;;;3.67;1.50;;;;;;;;;;5073768;28;20276;-68
2023/09/25 13:11:54;;;;;;;1.40;1.30;;;;;;;;;;5081616;28;20264;-69
2023/09/25 13:14:20;;;;;;;2.83;1.55;;;;;;;;;;5070892;28;20218;-70
2023/09/25 13:16:45;;;;;;;3.80;1.48;;;;;;;;;;5058909;28;20682;-69
2023/09/25 13:19:11;;;;;;;4.10;1.70;;;;;;;;;;5089978;28;20204;-70
2023/09/25 13:21:36;;;;;;;3.47;1.65;;;;;;;;;;5085667;28;20202;-69
2023/09/25 13:24:02;;;;;;;3.72;1.42;;;;;;;;;;5087346;28;20607;-70
2023/09/25 13:26:27;;;;;;;2.58;1.40;;;;;;;;;;5083068;28;20181;-70
2023/09/25 13:28:55;;;;;;;2.20;1.23;;;;;;;;;;5087243;28;20187;-70
2023/09/25 13:31:21;;;;;;;6.57;1.70;;;;;;;;;;5092051;28;20189;-71
2023/09/25 13:33:47;;;;;;;2.45;1.42;;;;;;;;;;5088139;28;20191;-72
2023/09/25 13:36:13;;;;;;;2.72;1.33;;;;;;;;;;5064143;28;20558;-71
2023/09/25 13:38:39;;;;;;;3.13;1.70;;;;;;;;;;5061160;28;20200;-70
2023/09/25 13:41:05;;;;;;;4.53;1.80;;;;;;;;;;5089273;28;20192;-70
2023/09/25 13:43:33;;;;;;;3.55;1.80;;;;;;;;;;5084662;28;20477;-70
2023/09/25 13:45:58;;;;;;;1.98;1.45;;;;;;;;;;5102222;28;20188;-69
2023/09/25 13:48:25;;;;;;;2.00;1.70;;;;;;;;;;5090291;28;20199;-69
2023/09/25 13:50:51;;;;;;;4.72;1.33;;;;;;;;;;5087501;28;20196;-68
2023/09/25 13:53:16;;;;;;;4.82;1.98;;;;;;;;;;5070983;28;20188;-70
2023/09/25 13:55:45;;;;;;;2.80;1.55;;;;;;;;;;5086469;28;20210;-71
2023/09/25 13:58:10;;;;;;;2.03;1.35;;;;;;;;;;5071265;28;20241;-71
2023/09/25 14:00:36;;;;;;;2.75;1.52;;;;;;;;;;5067097;28;20204;-71
2023/09/25 14:03:01;;;;;;;18.38;2.47;;;;;;;;;;5090994;28;20232;-69
2023/09/25 14:05:26;;;;;;;5.32;1.95;;;;;;;;;;5086144;28;20266;-68
2023/09/25 14:07:52;;;;;;;76.95;4.75;;;;;;;;;;5049844;28;20241;-70
2023/09/25 14:10:17;;;;;;;7.25;1.70;;;;;;;;;;5089347;28;20608;-71
2023/09/25 14:12:46;;;;;;;4.05;1.60;;;;;;;;;;5084423;28;20280;-69
2023/09/25 14:15:14;;;;;;;5.00;1.42;;;;;;;;;;5084438;28;20176;-68
2023/09/25 14:17:40;;;;;;;3.45;1.60;;;;;;;;;;5082372;28;20193;-69
2023/09/25 14:20:08;;;;;;;4.38;1.60;;;;;;;;;;5087980;28;20268;-71
2023/09/25 14:22:35;;;;;;;3.60;1.30;;;;;;;;;;5085933;28;20596;-71
2023/09/25 14:25:01;;;;;;;2.08;1.23;;;;;;;;;;5071399;28;20199;-70
2023/09/25 14:27:26;;;;;;;3.55;1.40;;;;;;;;;;5081947;28;20199;-70
2023/09/25 14:29:52;;;;;;;5.00;1.58;;;;;;;;;;5087025;28;20184;-70
2023/09/25 14:32:17;;;;;;;7.78;1.63;;;;;;;;;;5087243;28;20267;-71
2023/09/25 14:34:43;;;;;;;14.40;2.45;;;;;;;;;;5080317;28;20491;-69
2023/09/25 14:37:08;;;;;;;3.92;1.58;;;;;;;;;;5066183;28;20551;-71
2023/09/25 14:39:33;;;;;;;4.55;1.40;;;;;;;;;;5073710;28;20215;-70